Wetterdaten: Tageswerte
Station:   Jahr: 

      Diagramm: AllmendfeldCSV-Datei: Allmendfeld20.csv

Wetterdaten 2020 Station: Anzahl Tage: 349
Temperaturen in °C relative Nieder- Global- Wind Wind Sonnen-
Datum Boden Boden Luft Luft Luft Luft Feuchte schlag strahlung max schein
20 cm 5 cm 20 cm 2 m 2 m max 2 m min % mm W/m2*d m/s m/s h
01.01.2020 3,4 1,7 -0,4 0,2 4,9 -5,1 94 0,0 1372 0,4 2,1 4,0
02.01.2020 3,1 1,7 0,1 0,0 2,2 -2,3 99 0,1 333 1,6 4,4 0,0
03.01.2020 3,6 3,3 5,8 5,9 9,1 2,1 93 0,0 249 3,2 8,8 0,0
04.01.2020 4,5 3,9 4,3 4,8 8,9 0,2 90 0,0 495 2,2 8,1 0,6
05.01.2020 4,6 4,1 5,0 5,1 6,5 3,3 95 0,3 414 1,2 3,4 0,2
06.01.2020 4,5 3,4 0,2 0,4 5,3 -2,0 99 0,1 428 1,0 5,3 0,0
07.01.2020 4,3 3,5 3,5 3,7 8,1 -0,8 97 0,1 869 2,0 5,9 2,2
08.01.2020 4,5 4,0 5,0 5,1 7,9 1,8 97 1,5 292 2,6 7,1 0,0
09.01.2020 5,4 5,8 9,7 9,9 11,6 7,8 95 2,8 339 2,9 7,0 0,0
10.01.2020 6,3 6,5 8,3 8,7 13,8 6,1 91 4,6 555 3,0 12,0 0,8
11.01.2020 6,1 5,2 3,6 4,2 7,4 0,0 89 0,0 999 0,8 4,5 3,4
12.01.2020 5,1 3,6 2,1 2,4 5,5 -1,5 93 0,0 409 2,4 7,4 0,1
13.01.2020 5,1 4,6 5,5 5,6 7,6 4,4 92 0,0 427 2,2 5,8 0,5
14.01.2020 5,4 5,1 7,8 8,1 10,6 5,7 74 0,0 551 3,7 8,8 1,3
15.01.2020 5,8 5,7 9,7 10,2 14,0 6,5 68 0,0 1580 3,0 8,0 4,4
16.01.2020 6,2 5,9 7,9 9,1 14,2 1,7 83 0,0 1361 1,1 5,5 4,0
17.01.2020 5,5 4,2 3,6 4,4 8,9 -1,2 94 0,0 587 1,2 5,0 1,7
18.01.2020 5,3 4,3 3,4 4,1 8,7 -0,4 90 0,2 816 1,8 9,3 1,6
19.01.2020 4,9 3,7 2,3 2,5 6,8 -1,1 93 0,3 930 0,6 3,5 2,4
20.01.2020 4,6 3,2 1,7 2,3 6,5 -1,5 90 0,0 1699 0,8 5,2 5,1
21.01.2020 3,9 1,9 0,1 0,5 5,8 -3,3 87 0,1 1748 0,8 3,6 4,9
22.01.2020 3,1 1,1 -3,0 -2,9 -1,0 -6,1 100 0,0 288 0,5 2,4 0,0
23.01.2020 3,0 2,0 1,0 1,0 3,5 -1,1 92 0,0 704 1,1 5,6 1,3
24.01.2020 3,4 2,5 0,7 0,6 1,4 0,1 93 0,0 410 0,9 3,8 0,0
25.01.2020 3,6 2,9 1,2 1,1 3,1 -0,1 99 0,0 567 0,7 2,3 0,2
26.01.2020 3,8 3,2 1,6 1,5 3,1 0,0 100 0,1 447 1,0 3,4 0,0
27.01.2020 4,1 3,8 5,2 5,3 8,4 1,1 98 5,6 404 2,8 7,9 0,4
28.01.2020 4,8 4,5 5,2 5,7 10,8 1,4 91 3,4 654 4,5 16,9 2,0
29.01.2020 4,5 3,6 3,6 4,1 11,8 1,4 86 1,8 765 3,3 12,3 1,8
30.01.2020 4,4 4,0 6,2 6,4 10,1 2,1 88 0,1 1245 2,9 7,6 3,7
31.01.2020 5,6 6,6 11,8 12,3 19,0 8,0 89 0,0 934 3,7 11,7 2,2
01.02.2020 6,9 7,8 11,4 11,8 13,8 7,0 90 12,3 176 3,6 13,0 0,0
02.02.2020 7,1 7,1 9,5 10,1 15,8 3,2 89 1,9 348 2,9 9,5 0,0
03.02.2020 7,4 7,8 10,1 10,5 14,8 8,4 86 9,2 926 3,4 8,7 2,6
04.02.2020 7,4 6,9 5,7 5,8 10,4 4,1 85 14,3 1426 2,7 12,2 4,1
05.02.2020 6,5 5,3 3,9 4,4 8,3 -1,6 79 0,0 2352 1,1 5,1 5,7
06.02.2020 5,3 3,3 0,3 0,8 6,9 -3,8 90 0,0 2345 0,7 4,6 5,7
07.02.2020 4,4 2,5 0,6 1,1 8,8 -5,3 87 0,1 2482 0,6 5,0 6,2
08.02.2020 3,8 2,2 0,3 0,9 6,1 -5,0 93 0,0 1484 0,4 2,3 4,5
09.02.2020 4,1 3,7 7,8 8,4 17,6 -0,4 76 0,0 1668 4,1 18,0 4,0
10.02.2020 5,7 6,3 11,7 12,6 19,2 5,6 74 10,0 1429 8,4 23,0 4,0
11.02.2020 5,7 5,0 6,7 8,4 14,3 1,7 71 2,6 2235 6,8 19,6 5,2
12.02.2020 5,1 4,0 3,7 4,6 11,1 0,7 85 1,7 1104 4,4 13,4 3,0
13.02.2020 4,7 3,6 3,9 4,2 7,0 0,7 92 4,5 599 3,4 16,0 0,9
14.02.2020 5,0 4,9 6,8 7,2 10,3 5,0 83 0,6 924 2,5 9,4 2,7
15.02.2020 5,3 5,0 6,4 7,0 12,2 1,8 86 0,0 2554 2,2 7,1 5,8
16.02.2020 6,0 6,4 12,9 13,6 21,4 9,0 59 0,0 1372 4,3 16,7 4,0
17.02.2020 7,0 7,4 9,6 10,2 21,4 7,5 79 0,7 508 3,8 15,4 0,1
18.02.2020 6,8 6,4 7,8 8,6 15,0 5,9 74 0,0 1799 4,9 13,9 4,5
19.02.2020 6,5 5,9 5,9 6,5 11,5 1,2 73 0,0 1598 3,5 13,3 4,3
20.02.2020 6,1 5,6 7,1 7,4 13,1 2,5 78 0,0 1103 3,8 14,5 3,4
21.02.2020 6,1 5,5 5,5 6,3 13,2 -0,3 74 0,3 2681 3,6 13,9 6,3
22.02.2020 5,9 5,2 7,1 7,6 14,0 2,0 71 0,0 1905 3,7 11,0 4,2
23.02.2020 6,6 7,0 11,4 12,2 18,0 8,5 83 3,8 196 5,7 16,2 0,0
24.02.2020 7,1 7,2 8,3 8,9 16,1 4,9 86 0,3 963 3,0 13,7 2,4
25.02.2020 7,4 7,5 8,5 9,1 15,0 4,9 86 3,3 1158 4,3 11,6 2,6
26.02.2020 6,9 5,8 4,2 5,0 9,6 2,4 82 1,3 1255 4,4 12,6 3,7
27.02.2020 6,0 4,8 2,8 2,8 5,6 0,2 91 10,5 712 2,8 8,1 1,5
28.02.2020 5,4 4,4 4,3 4,5 8,9 0,7 78 4,5 3266 2,9 8,1 6,5
29.02.2020 5,9 6,0 9,1 9,6 18,7 6,0 76 3,2 1862 4,3 17,7 5,9
01.03.2020 6,6 6,6 8,5 9,0 14,5 5,5 76 1,8 2166 4,0 13,0 5,8
02.03.2020 6,7 6,5 6,7 7,0 11,0 2,7 81 2,8 1978 2,3 19,4 4,9
03.03.2020 6,8 6,3 4,9 5,5 11,9 0,2 85 2,9 3042 2,7 9,4 6,5
04.03.2020 6,2 5,4 4,4 4,7 12,1 0,3 88 0,1 2719 2,6 8,9 5,9
05.03.2020 6,3 5,8 6,1 6,3 8,7 3,5 92 7,3 761 1,8 6,2 2,0
06.03.2020 6,5 6,2 6,5 6,9 10,8 5,6 87 7,2 491 4,2 12,1 0,6
07.03.2020 6,4 6,0 5,6 6,0 10,8 0,8 78 0,0 2559 1,9 8,3 5,4
08.03.2020 6,5 6,3 7,5 7,7 11,7 4,1 76 0,0 2483 3,3 9,7 6,5
09.03.2020 7,0 7,1 7,7 8,2 15,3 3,3 84 2,0 2278 2,2 10,4 5,7
10.03.2020 6,9 6,4 7,1 7,2 12,6 3,8 96 12,3 565 3,7 10,8 0,2
11.03.2020 7,6 8,6 13,3 14,0 18,2 11,8 84 0,0 734 4,8 12,2 0,6
12.03.2020 8,5 9,0 11,3 12,0 18,3 7,0 76 0,5 741 4,2 15,1 1,6
13.03.2020 8,0 7,4 7,2 8,3 14,5 2,3 70 0,0 2183 3,9 11,7 6,3
14.03.2020 7,4 6,7 4,5 5,1 11,0 -0,9 85 0,0 2536 0,8 7,3 6,2
15.03.2020 7,2 6,7 6,9 7,8 15,1 0,2 74 0,0 4563 1,4 7,7 8,0
16.03.2020 7,3 7,1 8,6 9,7 18,3 -1,1 73 0,0 4299 1,1 5,6 7,9
17.03.2020 8,2 8,8 10,7 11,6 17,1 5,6 78 0,0 3331 0,6 5,3 6,8
18.03.2020 8,5 8,6 9,1 10,3 17,1 3,1 84 0,0 3820 0,6 3,2 8,3
19.03.2020 8,6 8,7 9,9 10,8 18,7 1,2 76 0,0 4635 0,5 3,7 7,8
20.03.2020 9,3 9,9 12,1 12,3 17,7 7,7 73 0,0 4113 1,7 7,8 7,3
21.03.2020 9,2 8,4 5,9 6,0 8,6 3,7 78 1,4 1370 3,1 11,6 4,8
22.03.2020 7,9 6,2 4,5 4,8 10,1 0,6 51 0,0 5680 3,8 10,8 8,6
23.03.2020 7,0 5,3 3,1 3,5 9,5 -3,2 44 0,0 5706 2,7 9,2 8,7
24.03.2020 6,3 4,6 2,8 3,5 10,4 -3,6 45 0,0 5758 2,1 9,2 8,8
25.03.2020 5,9 4,4 3,9 4,4 10,9 -3,3 39 0,0 5750 2,3 10,2 8,7
26.03.2020 5,9 5,0 5,7 6,0 11,5 -0,1 48 0,0 5170 2,4 9,2 8,5
27.03.2020 6,5 6,4 9,1 9,8 17,9 2,4 54 0,0 5400 1,7 7,7 8,6
28.03.2020 7,4 7,8 11,5 11,9 19,0 4,4 54 0,0 5296 1,5 7,6 8,6
29.03.2020 7,8 7,0 5,7 5,8 9,6 1,7 66 0,3 2176 2,3 11,6 6,4
30.03.2020 7,0 5,9 3,1 3,4 9,1 -2,0 51 0,0 6173 1,8 10,1 8,9
31.03.2020 7,1 6,6 5,3 5,4 10,9 0,1 57 0,0 5558 1,4 6,8 8,7
01.04.2020 6,8 5,8 3,3 4,0 11,8 -4,5 53 0,0 6154 0,7 5,1 9,0
02.04.2020 6,7 6,1 4,6 5,4 14,4 -5,6 60 0,0 6008 0,7 5,1 8,8
03.04.2020 7,1 6,8 6,6 7,2 14,9 -1,5 68 0,0 3662 1,5 7,7 5,9
04.04.2020 7,4 7,3 6,8 7,9 15,9 -1,9 64 0,0 6187 0,7 4,2 9,1
05.04.2020 8,0 8,4 10,9 12,2 20,7 0,6 52 0,0 6323 1,5 6,8 9,3
06.04.2020 8,6 9,1 10,9 12,4 23,7 0,1 58 0,0 6183 0,9 5,8 9,1
07.04.2020 9,3 10,1 13,2 14,4 24,2 2,5 60 0,0 6111 0,9 5,2 9,1
08.04.2020 10,3 11,5 15,2 16,2 23,8 7,5 56 0,0 6063 0,9 4,6 9,1
09.04.2020 10,8 11,9 14,0 15,0 24,5 3,6 60 0,0 5709 0,7 5,4 8,8
10.04.2020 11,6 12,6 15,9 16,5 23,5 8,7 54 0,0 6449 1,1 4,7 9,3
11.04.2020 11,8 12,6 13,9 14,8 23,0 6,5 49 0,0 6591 0,9 4,6 9,5
12.04.2020 11,8 12,5 13,0 14,2 24,9 3,5 62 0,0 5992 0,8 8,1 9,0
13.04.2020 11,6 11,1 8,8 9,8 14,1 3,8 74 1,3 2454 1,2 8,3 6,6
14.04.2020 10,1 8,8 4,4 5,1 12,1 -3,3 64 0,0 5169 0,7 5,7 9,5
15.04.2020 9,6 9,1 7,1 7,8 17,9 -2,5 64 0,0 6466 0,5 4,1 9,8
16.04.2020 10,1 10,5 11,7 12,9 26,3 0,3 65 0,0 6384 1,0 6,8 9,6
17.04.2020 11,2 12,3 14,4 15,4 25,3 4,4 65 0,0 6397 0,5 3,6 9,1
18.04.2020 12,2 13,5 15,5 16,1 25,2 7,4 71 0,0 4629 0,8 5,2 8,0
19.04.2020 12,7 13,4 13,5 14,0 20,3 7,4 75 0,0 5029 1,2 8,2 9,4
20.04.2020 12,4 12,4 13,5 13,9 20,6 6,3 42 0,0 7260 2,8 11,6 9,9
21.04.2020 12,2 12,4 14,9 15,4 22,6 8,9 37 0,0 7398 3,0 12,1 9,9
22.04.2020 12,3 12,7 15,2 15,9 23,3 6,9 40 0,0 7436 1,9 9,7 10,0
23.04.2020 12,7 13,4 14,7 15,3 23,6 6,2 47 0,0 7350 1,0 5,1 10,0
24.04.2020 12,8 13,2 13,7 14,5 26,9 3,9 62 0,0 6270 1,4 8,7 9,5
25.04.2020 12,7 12,9 10,9 11,7 18,5 2,9 62 0,0 7516 0,8 6,4 10,1
26.04.2020 12,6 12,9 12,2 12,7 21,7 1,9 59 0,0 7458 0,6 6,4 10,2
27.04.2020 12,8 13,2 13,6 14,4 25,7 2,8 61 0,0 7153 1,3 8,5 9,5
28.04.2020 12,9 13,0 13,1 14,0 24,6 6,9 76 0,0 3193 2,0 12,0 7,2
29.04.2020 12,9 13,5 14,5 15,0 24,7 10,2 70 0,7 4677 2,7 9,7 7,5
30.04.2020 13,0 13,0 12,3 12,6 19,3 10,0 87 7,8 2574 3,2 10,1 6,7
01.05.2020 12,5 12,2 10,6 10,7 16,4 7,4 89 16,2 3327 2,8 14,7 7,4
02.05.2020 12,0 11,7 10,2 11,1 20,3 4,6 79 0,2 6013 3,0 11,4 9,9
03.05.2020 11,9 11,9 11,2 11,5 19,1 3,6 73 0,0 6135 1,0 7,3 9,3
04.05.2020 12,7 13,2 12,6 12,9 18,6 7,8 81 3,8 3240 1,0 5,3 7,0
05.05.2020 12,7 12,7 9,7 10,3 16,9 4,5 68 0,0 6470 0,9 5,7 10,0
06.05.2020 12,6 12,6 10,4 11,1 18,0 3,2 57 0,0 8138 0,9 5,9 10,4
07.05.2020 12,7 12,9 11,8 12,7 21,9 1,1 66 0,0 7895 0,6 3,8 10,5
08.05.2020 13,3 14,1 14,3 15,5 25,7 5,9 64 0,0 6655 0,4 3,0 9,5
09.05.2020 13,8 14,2 14,9 15,5 19,9 10,2 72 0,0 2341 0,7 4,1 7,1
10.05.2020 14,2 15,7 17,4 17,4 26,9 10,9 80 3,1 5553 0,9 6,8 8,7
11.05.2020 14,0 12,6 8,0 7,9 15,2 3,6 95 22,7 1221 2,0 12,7 3,8
12.05.2020 12,3 11,9 7,3 7,6 14,5 -0,4 71 0,0 7693 0,6 4,3 10,0
13.05.2020 12,6 12,4 10,4 10,5 15,9 2,4 66 0,0 5252 0,8 5,1 9,9
14.05.2020 12,8 13,1 11,2 11,1 17,0 5,6 64 0,0 6951 1,5 6,9 9,4
15.05.2020 13,3 13,9 12,3 12,4 18,6 6,7 55 0,0 8078 1,2 6,4 10,5
16.05.2020 13,7 14,3 12,4 12,8 20,0 4,5 57 0,0 8182 0,7 5,0 10,0
17.05.2020 14,0 14,7 12,4 12,9 20,0 4,3 65 0,0 8065 0,6 4,4 10,5
18.05.2020 14,3 15,2 14,8 15,4 24,6 4,7 65 0,0 7967 0,6 5,2 10,5
19.05.2020 15,1 16,3 17,5 18,1 26,1 7,4 60 0,0 7999 0,7 4,9 10,4
20.05.2020 15,9 17,5 18,7 19,1 25,7 10,7 64 0,0 7041 0,6 4,4 10,3
21.05.2020 16,6 18,2 18,9 19,2 26,5 12,1 65 0,0 8200 0,7 4,1 10,5
22.05.2020 16,9 17,7 19,1 19,8 25,3 10,8 75 0,0 3629 0,9 5,6 9,9
23.05.2020 16,6 16,4 14,3 14,5 19,3 9,4 79 3,3 1940 1,4 7,2 6,1
24.05.2020 15,3 15,1 14,0 14,1 20,4 7,3 72 0,0 5918 2,0 10,7 9,0
25.05.2020 15,4 15,8 15,8 16,1 22,0 10,3 70 0,0 4554 1,3 7,3 9,8
26.05.2020 15,4 15,7 14,0 14,6 21,8 5,8 68 0,0 7296 0,8 5,8 9,8
27.05.2020 15,7 16,5 15,9 16,2 24,8 6,6 63 0,0 8213 0,7 5,6 10,5
28.05.2020 16,5 17,7 17,2 17,3 22,9 12,0 55 0,0 8330 1,3 7,4 10,6
29.05.2020 16,5 17,0 16,0 16,3 23,6 7,3 51 0,0 7912 1,1 7,3 10,4
30.05.2020 16,5 17,3 16,5 16,6 22,6 9,8 48 0,0 8293 1,6 8,7 10,7
31.05.2020 16,6 17,5 15,8 16,0 23,1 9,4 55 0,0 7691 1,1 7,7 10,5
01.06.2020 17,1 18,4 19,1 19,3 27,1 9,5 54 0,0 8589 1,1 7,2 10,6
02.06.2020 17,8 19,5 20,7 21,0 28,7 12,8 52 0,0 8285 0,8 7,1 10,4
03.06.2020 18,4 19,6 18,5 18,8 31,1 11,2 72 4,3 6438 0,7 6,8 8,0
04.06.2020 18,1 18,2 15,5 15,5 18,3 12,8 92 9,4 2221 0,7 6,1 6,7
05.06.2020 16,9 15,9 12,9 12,9 17,3 11,0 80 3,3 3256 2,6 10,9 6,9
06.06.2020 15,8 15,5 13,6 13,6 21,0 9,2 86 6,5 4868 1,7 9,0 8,4
07.06.2020 16,1 16,2 15,4 15,4 19,9 11,4 74 0,0 5082 1,6 7,7 10,0
08.06.2020 16,1 16,2 14,4 14,7 21,0 8,2 73 0,0 5031 0,5 5,6 9,4
09.06.2020 16,2 16,0 14,8 15,0 19,7 10,1 76 0,0 2601 0,8 6,6 7,8
10.06.2020 16,2 16,4 15,6 15,7 20,8 13,4 82 0,2 2747 0,7 5,2 5,7
11.06.2020 16,5 17,0 15,5 15,6 19,3 12,1 85 1,5 3238 0,6 3,8 9,2
12.06.2020 17,0 18,3 20,3 20,5 29,7 10,7 71 0,0 8074 1,3 8,2 10,7
13.06.2020 18,1 19,3 21,6 21,8 28,6 13,7 62 0,0 6373 1,5 7,2 10,2
14.06.2020 18,2 18,4 18,7 18,9 21,2 15,6 79 0,5 2198 1,7 7,7 6,4
15.06.2020 17,7 17,9 17,8 17,9 20,5 15,8 89 2,3 1805 0,7 4,2 5,7
16.06.2020 17,8 18,5 17,7 17,6 21,6 14,7 89 1,6 3750 0,6 2,8 9,4
17.06.2020 18,1 18,6 18,0 17,9 24,2 14,4 87 5,4 3867 0,9 6,3 7,5
18.06.2020 18,2 19,0 18,3 18,2 25,6 12,4 78 0,2 7988 1,4 7,1 10,6
19.06.2020 18,2 18,4 18,3 18,5 25,2 11,0 75 0,0 6365 1,3 6,6 10,2
20.06.2020 18,3 18,9 18,9 18,9 25,1 12,4 72 0,0 6685 1,1 7,8 10,3
21.06.2020 18,5 19,4 19,4 19,5 27,7 10,9 68 0,0 8296 0,7 5,1 10,4
22.06.2020 19,1 20,2 20,3 20,3 26,3 14,6 71 0,0 6179 1,0 6,2 10,0
23.06.2020 19,4 20,8 21,1 21,3 29,0 13,2 60 0,0 8698 1,0 5,9 10,7
24.06.2020 20,0 21,6 22,5 22,6 29,8 14,7 52 0,0 8725 1,2 7,5 10,9
25.06.2020 20,4 21,3 22,2 22,5 28,2 16,2 59 0,0 6674 1,3 6,9 10,8
26.06.2020 20,5 21,7 22,3 22,5 32,0 12,1 65 0,0 7476 1,2 12,3 8,6
27.06.2020 20,9 22,1 23,9 23,9 32,8 17,3 71 1,1 6514 1,9 9,8 10,2
28.06.2020 20,7 20,8 19,9 20,3 29,8 14,9 78 1,7 3618 2,2 11,0 6,2
29.06.2020 19,8 19,9 18,2 18,2 28,1 12,9 76 1,0 5812 1,6 9,2 9,3
30.06.2020 19,0 18,2 17,5 17,8 26,2 9,7 69 0,0 4653 1,8 8,6 9,8
01.07.2020 19,2 20,4 22,3 22,4 33,1 12,5 68 0,0 7638 2,3 11,3 10,3
02.07.2020 20,4 21,4 21,8 21,8 30,8 17,5 68 0,3 5550 2,3 15,1 8,1
03.07.2020 20,0 20,5 19,5 19,4 26,3 10,6 62 0,0 7185 1,5 7,2 10,7
04.07.2020 19,8 20,4 20,7 20,9 30,9 11,3 61 0,0 6837 2,3 10,4 10,1
05.07.2020 20,4 21,5 24,1 24,4 31,9 21,5 62 0,0 4649 3,3 11,4 7,8
06.07.2020 20,3 20,4 18,8 18,8 26,2 11,4 58 0,0 5776 2,8 11,3 9,7
07.07.2020 19,3 19,2 16,2 16,2 24,5 6,6 63 0,0 6798 0,7 5,5 10,0
08.07.2020 19,2 18,7 16,6 16,7 21,1 13,7 75 1,2 1766 0,7 7,8 4,8
09.07.2020 19,5 20,9 23,0 22,8 34,4 15,5 69 0,1 6739 2,0 10,1 10,1
10.07.2020 20,4 21,1 22,0 22,2 29,3 17,8 62 0,0 4622 2,5 11,1 9,5
11.07.2020 20,1 20,7 18,1 18,0 25,7 11,5 61 0,5 7243 0,7 5,2 10,1
12.07.2020 20,0 20,5 18,6 18,4 27,0 9,8 55 0,0 7851 0,9 8,2 10,6
13.07.2020 20,3 21,2 20,6 20,5 28,9 12,5 49 0,0 7456 0,9 5,6 10,0
14.07.2020 20,4 21,0 20,5 20,5 29,4 11,0 57 0,3 5998 1,0 7,2 10,1
15.07.2020 20,3 20,3 17,6 17,4 23,5 14,4 82 15,7 3932 0,7 4,2 7,4
16.07.2020 19,8 19,1 16,2 16,2 18,5 14,5 90 3,5 1234 0,9 6,6 3,2
17.07.2020 19,5 20,2 19,2 18,9 25,4 14,7 75 0,6 5861 0,7 4,8 9,3
18.07.2020 20,4 21,3 21,1 21,1 28,0 15,4 65 0,0 5741 0,5 3,7 10,4
19.07.2020 20,8 22,2 21,4 21,5 30,3 11,0 62 0,0 6975 0,6 5,5 10,5
20.07.2020 21,6 22,8 21,8 21,8 28,8 13,9 61 0,3 6281 1,0 6,8 9,9
21.07.2020 22,0 23,7 20,3 20,1 27,6 13,4 54 0,0 8156 1,0 5,8 10,4
22.07.2020 22,2 23,6 20,4 20,3 27,9 11,1 48 0,0 8111 1,0 4,9 10,5
23.07.2020 22,6 24,2 20,7 20,7 28,9 11,8 52 0,0 7830 0,7 8,1 10,0
24.07.2020 23,0 24,1 22,7 22,6 30,8 16,1 53 0,0 5593 1,3 7,9 9,5
25.07.2020 22,9 24,3 22,8 22,6 30,3 15,1 58 0,0 5740 1,0 6,2 8,8
26.07.2020 22,8 23,1 22,3 22,3 28,3 15,5 67 4,5 5499 2,2 9,3 9,9
27.07.2020 21,9 22,4 22,9 22,9 32,7 13,3 63 0,0 5750 1,1 8,8 10,3
28.07.2020 22,4 23,2 24,3 24,6 34,0 16,9 52 0,0 5546 3,0 10,8 8,6
29.07.2020 22,0 23,1 20,0 20,1 28,7 9,3 56 0,0 7949 0,9 9,0 10,4
30.07.2020 22,6 24,3 22,4 22,6 31,6 13,5 49 0,0 7880 0,9 4,3 10,5
31.07.2020 23,5 25,8 25,6 25,9 36,5 12,9 47 0,0 7777 0,7 5,0 10,5
01.08.2020 23,8 24,5 24,4 24,6 32,2 15,3 60 0,0 4316 0,7 4,8 9,2
02.08.2020 23,3 24,0 23,4 23,4 30,8 19,0 63 0,0 4565 1,0 8,8 7,7
03.08.2020 22,4 22,0 19,3 19,1 25,4 15,7 73 9,8 3298 0,9 6,5 7,6
04.08.2020 21,5 21,2 19,1 19,1 25,5 13,3 70 0,0 5845 0,8 4,9 9,7
05.08.2020 21,3 21,3 21,1 21,1 29,6 13,4 60 0,0 7414 0,9 6,6 10,4
06.08.2020 21,5 22,1 22,6 22,7 32,4 11,2 58 0,0 7464 0,7 5,6 10,3
07.08.2020 22,1 23,1 25,4 25,5 35,6 14,3 56 0,0 7309 0,8 6,8 10,3
08.08.2020 23,0 24,7 27,1 27,3 37,1 17,2 55 0,0 7144 0,6 5,3 10,1
09.08.2020 23,7 25,3 27,2 27,2 38,0 17,3 57 0,0 6798 0,8 8,2 9,4
10.08.2020 24,1 25,4 27,5 27,5 34,7 19,6 55 0,0 5434 1,0 4,9 10,0
11.08.2020 24,3 25,7 27,8 27,8 36,1 20,8 56 0,0 5553 1,0 11,1 9,4
12.08.2020 24,5 25,7 27,4 27,3 36,7 21,5 58 0,1 5363 1,1 8,5 8,7
13.08.2020 23,8 23,2 22,2 22,3 24,8 19,6 86 7,1 1455 0,9 4,8 4,9
14.08.2020 22,8 22,6 22,2 22,3 27,0 19,5 84 0,0 2442 0,8 5,4 6,1
15.08.2020 22,8 23,5 23,6 23,5 31,0 18,2 76 0,0 6020 0,8 5,0 8,7
16.08.2020 23,2 23,7 24,9 24,9 33,5 17,7 67 3,3 5322 0,7 6,9 9,3
17.08.2020 23,0 22,7 21,9 21,9 28,1 17,8 79 1,8 4308 1,3 8,5 7,7
18.08.2020 22,1 21,5 21,7 21,5 29,2 17,0 68 0,0 4873 1,3 7,8 8,8
19.08.2020 21,7 21,6 21,6 21,6 30,3 12,0 68 0,0 6272 0,9 6,7 9,4
20.08.2020 22,3 23,0 25,3 25,3 34,0 18,5 64 2,3 6404 1,0 5,8 8,6
21.08.2020 22,5 22,7 26,2 26,3 34,7 16,7 62 0,0 3983 1,4 7,5 7,5
22.08.2020 22,4 22,1 23,0 22,8 29,9 17,8 71 6,7 4869 2,3 9,6 8,0
23.08.2020 21,2 20,1 21,0 21,1 28,3 16,6 62 0,0 4639 2,3 10,3 8,7
24.08.2020 20,3 19,3 19,2 19,1 26,6 13,4 63 0,0 4156 1,8 8,3 8,5
25.08.2020 19,6 18,3 18,8 18,9 24,5 11,6 63 0,0 2863 1,4 6,7 8,1
26.08.2020 19,3 18,6 23,5 23,5 29,4 18,0 52 0,0 3391 4,6 15,7 8,1
27.08.2020 18,9 18,4 18,2 18,3 25,6 10,0 63 0,0 4801 1,0 5,3 9,5
28.08.2020 19,1 18,5 19,2 19,2 23,8 14,6 71 1,0 3659 2,0 7,0 8,1
29.08.2020 18,8 18,0 17,3 17,3 23,0 12,7 76 0,2 3385 1,2 5,5 8,4
30.08.2020 18,4 17,4 15,7 15,7 21,3 10,8 84 5,4 1839 1,0 4,9 6,0
31.08.2020 18,2 17,7 16,3 16,2 22,1 13,5 87 0,3 3089 1,0 5,8 7,2
01.09.2020 18,4 18,0 17,3 17,3 24,1 12,3 70 0,0 4958 0,8 6,7 7,9
02.09.2020 18,4 17,9 16,7 16,8 24,4 11,0 68 0,0 4921 0,6 5,1 8,1
03.09.2020 17,8 16,8 16,3 16,4 23,8 7,1 74 0,0 3024 1,3 7,7 7,2
04.09.2020 18,4 19,0 23,4 23,2 31,2 18,5 52 0,0 4348 1,7 7,1 7,8
05.09.2020 18,8 18,4 17,9 18,1 25,0 12,9 73 0,0 2373 0,8 6,9 4,4
06.09.2020 18,4 18,0 16,0 16,2 21,3 9,5 60 0,0 4224 0,6 5,9 8,4
07.09.2020 17,7 16,8 14,3 14,8 23,9 5,3 66 0,0 5344 0,5 5,4 8,6
08.09.2020 17,3 16,7 16,7 16,9 27,7 5,4 62 0,0 5553 0,8 5,7 8,7
09.09.2020 17,6 17,6 19,0 19,3 30,2 8,9 64 0,0 5340 0,9 6,6 9,1
10.09.2020 18,5 19,0 20,1 20,2 24,7 17,5 63 0,0 3027 0,7 5,4 7,2
11.09.2020 18,7 18,8 19,0 19,2 27,5 11,7 58 0,0 5053 0,7 3,5 8,3
12.09.2020 18,3 18,1 18,9 19,2 29,9 9,2 66 0,0 4694 0,7 4,6 8,6
13.09.2020 18,5 18,5 19,8 20,3 30,0 11,2 67 0,0 4930 0,5 4,4 8,7
14.09.2020 18,6 18,8 21,2 21,8 33,9 10,0 64 0,0 4810 0,5 4,0 8,4
15.09.2020 18,8 18,9 20,5 21,1 32,0 11,5 68 0,0 4950 0,4 3,5 8,2
16.09.2020 19,0 19,1 20,9 21,4 31,9 13,0 71 0,0 3193 0,4 4,5 7,3
17.09.2020 19,0 18,6 18,9 18,9 23,8 14,8 63 0,0 4579 1,7 7,1 8,2
18.09.2020 18,0 16,9 17,4 17,6 25,5 11,2 57 0,0 4732 1,6 7,6 8,3
19.09.2020 17,1 15,8 15,1 16,0 25,8 6,3 58 0,0 4944 0,5 3,8 8,3
20.09.2020 16,8 15,9 16,5 17,0 26,5 7,8 62 0,0 4366 0,7 4,4 8,2
21.09.2020 16,7 15,9 16,7 17,2 27,5 7,3 64 0,0 4598 0,5 4,6 8,2
22.09.2020 16,7 16,2 18,9 18,3 28,0 8,2 68 0,0 4057 0,6 8,2 8,8
23.09.2020 17,5 17,7 20,5 20,4 25,8 16,5 63 0,0 3355 1,8 7,5 6,5
24.09.2020 17,5 17,0 17,7 17,6 21,7 13,6 73 5,8 3058 2,3 9,1 6,9
25.09.2020 16,6 14,6 12,2 12,2 15,0 10,2 84 1,2 1303 2,0 10,4 3,8
26.09.2020 14,9 12,5 10,7 10,7 15,0 8,7 86 8,3 742 2,9 10,8 1,7
27.09.2020 14,0 12,3 10,8 10,7 13,8 8,4 90 10,9 2244 1,7 6,6 5,3
28.09.2020 13,8 12,2 11,0 11,2 18,2 4,8 82 0,0 3426 0,9 6,9 7,2
29.09.2020 14,0 12,8 12,4 12,4 14,7 8,1 93 1,1 643 1,1 4,3 0,6
30.09.2020 14,5 14,1 13,8 14,0 18,7 8,5 88 0,0 1874 0,6 3,1 5,9
01.10.2020 14,3 13,2 12,0 12,2 18,8 6,2 93 2,6 1949 0,9 4,9 4,5
02.10.2020 14,5 14,0 15,4 15,6 20,6 8,5 81 0,0 2102 1,1 8,0 5,5
03.10.2020 14,8 13,6 12,6 12,8 18,2 5,8 89 1,3 803 1,4 8,9 1,7
04.10.2020 13,6 12,0 13,5 13,4 20,0 6,8 71 0,1 2605 3,3 14,3 4,7
05.10.2020 13,3 12,0 11,9 12,0 15,8 8,9 84 2,1 1377 2,4 10,3 5,2
06.10.2020 13,3 12,4 12,7 12,7 15,5 11,1 89 3,4 1043 3,2 10,6 2,5
07.10.2020 13,5 12,7 13,2 13,4 18,3 10,4 82 0,4 1738 2,9 9,7 5,2
08.10.2020 13,3 12,4 13,0 13,1 18,2 8,6 91 0,8 838 2,4 8,7 1,5
09.10.2020 13,9 13,8 14,9 15,0 16,3 12,2 90 3,3 706 2,2 6,7 1,4
10.10.2020 13,8 12,5 10,8 11,0 15,5 5,3 80 0,0 2281 1,3 7,5 5,2
11.10.2020 12,5 10,7 9,0 9,0 13,8 5,8 81 0,0 2324 0,8 3,8 5,3
12.10.2020 12,3 10,9 8,9 8,8 12,8 6,0 95 0,8 1688 0,9 3,6 5,1
13.10.2020 11,8 10,0 7,8 8,0 13,1 3,5 92 0,0 1835 0,6 3,5 5,4
14.10.2020 11,4 10,0 8,1 8,1 12,6 5,1 92 2,2 1459 0,7 5,0 5,0
15.10.2020 11,6 10,3 9,1 9,1 10,9 7,7 93 0,4 654 1,1 7,0 1,3
16.10.2020 11,6 10,8 10,0 10,0 13,1 7,0 85 0,1 1076 1,1 6,0 3,9
17.10.2020 11,6 10,5 8,2 8,3 11,5 5,9 88 0,0 1557 0,4 3,2 4,8
18.10.2020 10,9 9,1 6,2 6,5 11,8 0,2 91 0,0 1277 0,4 2,7 4,5
19.10.2020 11,0 10,0 9,0 9,3 14,7 3,6 83 0,0 1500 0,8 3,8 4,2
20.10.2020 10,3 8,7 7,9 8,3 16,6 0,4 86 0,0 1667 0,6 4,4 4,4
21.10.2020 11,3 11,2 13,8 14,0 19,0 9,1 78 0,0 1268 1,5 6,8 4,8
22.10.2020 12,1 12,3 16,5 16,8 21,8 12,1 73 0,2 1441 1,5 5,8 4,9
23.10.2020 13,1 13,4 14,7 14,8 15,9 13,2 98 1,7 486 1,6 4,8 0,5
24.10.2020 12,9 12,3 13,1 13,4 19,0 10,1 88 0,1 1240 1,8 7,6 3,3
25.10.2020 12,6 11,8 13,2 13,3 18,2 9,6 79 5,1 1838 2,2 10,4 4,9
26.10.2020 12,4 11,4 10,4 10,4 11,8 7,6 97 10,2 673 1,8 5,5 1,8
27.10.2020 11,5 9,9 9,3 9,5 12,5 6,7 88 0,0 1025 2,3 8,0 2,5
28.10.2020 11,4 10,6 11,8 12,0 17,0 10,0 82 3,3 1296 2,6 9,1 3,8
29.10.2020 11,6 10,8 11,1 11,2 15,7 9,5 91 7,3 617 2,3 9,8 0,8
30.10.2020 11,9 11,8 13,2 13,3 16,0 10,8 92 0,8 732 2,5 7,7 1,3
31.10.2020 12,4 12,1 13,5 13,7 17,6 11,5 80 0,0 1911 1,6 5,8 4,1
01.11.2020 12,4 12,3 13,9 14,0 16,2 12,2 96 3,7 390 2,4 6,5 0,3
02.11.2020 13,4 14,2 18,3 18,6 25,1 15,8 81 0,1 1263 2,5 8,5 3,1
03.11.2020 13,8 13,3 12,2 12,4 18,3 9,0 81 0,7 1094 1,5 8,8 2,5
04.11.2020 12,2 10,0 6,3 6,9 11,7 2,3 88 0,0 1614 0,6 3,9 3,9
05.11.2020 10,3 7,4 4,1 4,5 11,3 -0,1 89 0,0 1873 0,7 4,7 4,4
06.11.2020 8,9 6,1 3,9 4,5 12,2 -2,8 84 0,1 1927 1,0 5,3 4,5
07.11.2020 8,1 5,8 3,2 3,8 12,2 -2,1 91 0,0 1675 0,4 2,2 5,0
08.11.2020 8,1 6,5 4,7 4,9 10,6 -0,1 96 0,0 1176 0,2 1,9 3,9
09.11.2020 8,8 8,0 7,7 8,1 13,4 3,5 95 0,6 1404 0,3 2,6 3,9
10.11.2020 8,7 7,3 5,1 5,2 6,9 2,4 100 0,1 399 0,3 1,6 0,0
11.11.2020 9,0 8,5 7,5 7,4 8,9 6,2 99 0,4 490 0,4 2,3 0,6
12.11.2020 9,6 9,0 8,8 9,1 11,9 6,2 97 0,0 565 1,6 5,9 0,5
13.11.2020 9,3 8,5 8,5 8,7 13,3 2,7 95 0,2 941 1,1 5,6 3,3
14.11.2020 10,1 9,8 11,6 12,4 17,1 6,1 86 0,0 1499 1,2 5,3 3,7
15.11.2020 10,0 9,3 12,3 12,8 17,1 7,6 80 7,7 1368 2,6 8,7 4,4
16.11.2020 10,4 10,0 11,1 11,5 15,8 9,4 84 0,3 785 3,2 11,7 1,2
17.11.2020 10,2 9,5 9,8 10,0 12,5 7,0 90 0,0 919 2,1 7,4 3,0
18.11.2020 10,0 8,7 7,6 8,3 12,9 3,0 91 0,0 1543 1,1 4,2 4,2
19.11.2020 9,4 8,3 8,9 9,3 12,2 6,3 86 2,6 680 2,3 8,2 1,5
20.11.2020 8,7 6,7 3,1 3,6 7,6 -0,9 95 0,0 632 0,6 4,0 0,6
21.11.2020 7,2 4,5 0,6 1,2 6,9 -2,6 94 0,1 1229 0,8 3,8 3,6
22.11.2020 6,5 4,7 3,6 3,7 6,8 0,1 90 0,0 800 2,2 6,3 2,8
23.11.2020 7,2 6,3 5,8 6,0 7,9 1,5 97 0,9 541 1,4 4,4 0,4
24.11.2020 7,3 6,2 4,5 4,5 6,1 1,0 98 0,1 287 0,5 3,0 0,0
25.11.2020 7,0 5,3 2,4 2,4 6,2 -0,7 98 0,0 658 1,1 4,9 1,8
26.11.2020 6,6 5,2 2,1 1,9 2,8 1,0 100 0,0 232 0,7 2,9 0,0
27.11.2020 6,5 5,1 2,2 2,1 3,7 -0,6 99 0,0 455 0,5 2,4 0,0
28.11.2020 6,1 4,4 1,5 1,5 5,4 -0,2 96 0,1 903 1,2 7,1 2,4
29.11.2020 5,7 3,7 1,3 1,5 4,1 -2,4 82 0,0 917 1,7 7,3 3,2
30.11.2020 4,4 1,5 -2,4 -2,1 2,5 -7,3 94 0,2 1551 1,2 7,2 4,7
01.12.2020 3,8 1,8 0,8 1,0 1,8 -0,4 99 7,2 435 1,9 8,5 0,5
02.12.2020 4,0 2,6 1,6 1,6 2,3 0,7 94 0,0 140 0,9 4,4 0,0
03.12.2020 4,2 2,9 2,0 2,0 4,4 0,2 91 0,2 592 3,1 8,1 1,3
04.12.2020 4,6 3,9 5,2 5,5 8,1 2,8 86 1,6 388 2,2 9,0 0,5
05.12.2020 5,0 4,1 3,4 3,5 5,3 1,9 97 6,0 538 1,4 5,5 0,8
06.12.2020 5,1 4,2 3,5 3,5 4,8 2,7 99 3,5 176 0,7 3,8 0,0
07.12.2020 5,3 4,6 4,1 4,2 5,7 2,9 98 2,5 494 1,3 4,2 0,4
08.12.2020 5,0 3,5 1,6 2,0 5,3 -1,5 93 0,0 1201 0,8 4,9 3,9
09.12.2020 4,4 2,8 1,4 1,5 3,8 -2,0 96 0,0 237 0,8 3,6 0,0
10.12.2020 4,4 3,2 1,4 1,4 2,4 0,6 89 0,0 345 0,6 3,4 0,0
11.12.2020 4,4 3,3 2,4 2,5 5,2 -0,4 91 1,0 600 0,9 4,3 1,5
12.12.2020 4,9 4,6 5,2 5,2 6,6 4,2 99 0,9 204 0,4 3,3 0,0
13.12.2020 5,7 5,4 5,9 6,3 9,3 3,4 97 0,6 512 0,9 3,7 1,0
14.12.2020 5,8 4,6 1,9 3,3 5,7 1,6 98 0,0 0 1,0 2,4 0,0
Landesbetrieb Landwirtschaft Hessen 2013

  CSV-Datei: Allmendfeld20.csv